createdAt,value
2018-07-03T00:00:13.152Z,1.67
2018-07-03T00:02:41.339Z,1.17
2018-07-03T00:05:09.557Z,1.67
2018-07-03T00:07:37.732Z,1.60
2018-07-03T00:10:05.994Z,1.60
2018-07-03T00:12:34.176Z,1.63
2018-07-03T00:15:02.387Z,1.63
2018-07-03T00:17:30.556Z,1.37
2018-07-03T00:19:58.725Z,1.60
2018-07-03T00:22:26.910Z,1.73
2018-07-03T00:24:55.085Z,1.60
2018-07-03T00:27:23.261Z,1.70
2018-07-03T00:29:51.423Z,1.60
2018-07-03T00:32:19.596Z,1.60
2018-07-03T00:34:47.858Z,1.60
2018-07-03T00:37:16.024Z,1.20
2018-07-03T00:39:43.940Z,1.53
2018-07-03T00:42:12.121Z,1.30
2018-07-03T00:44:40.304Z,1.37
2018-07-03T00:47:08.498Z,1.60
2018-07-03T00:49:36.699Z,1.20
2018-07-03T00:52:04.886Z,1.30
2018-07-03T00:54:33.059Z,1.33
2018-07-03T00:57:01.282Z,1.40
2018-07-03T00:59:29.454Z,1.17
2018-07-03T01:01:57.628Z,1.20
2018-07-03T01:04:25.795Z,1.67
2018-07-03T01:06:53.980Z,1.30
2018-07-03T01:09:22.148Z,1.57
2018-07-03T01:11:50.342Z,1.40
2018-07-03T01:14:18.542Z,1.47
2018-07-03T01:16:46.707Z,1.53
2018-07-03T01:19:14.900Z,1.20
2018-07-03T01:21:43.897Z,1.60
2018-07-03T01:24:12.076Z,1.50
2018-07-03T01:26:40.242Z,1.40
2018-07-03T01:29:08.427Z,1.40
2018-07-03T01:31:36.585Z,1.57
2018-07-03T01:34:04.966Z,1.30
2018-07-03T01:36:33.141Z,1.23
2018-07-03T01:39:01.315Z,1.27
2018-07-03T01:41:29.627Z,0.97
2018-07-03T01:43:57.780Z,1.20
2018-07-03T01:46:25.948Z,1.40
2018-07-03T01:48:54.122Z,1.47
2018-07-03T01:51:22.299Z,1.40
2018-07-03T01:53:50.466Z,1.47
2018-07-03T01:56:18.649Z,1.40
2018-07-03T01:58:46.810Z,1.40
2018-07-03T02:01:15.026Z,1.50
2018-07-03T02:03:43.539Z,1.40
2018-07-03T02:06:11.726Z,1.47
2018-07-03T02:08:39.954Z,1.90
2018-07-03T02:11:08.192Z,1.60
2018-07-03T02:13:36.344Z,1.50
2018-07-03T02:16:06.536Z,1.30
2018-07-03T02:18:34.823Z,1.27
2018-07-03T02:21:03.052Z,1.60
2018-07-03T02:23:31.322Z,1.60
2018-07-03T02:25:59.675Z,1.60
2018-07-03T02:28:27.835Z,1.50
2018-07-03T02:30:56.001Z,1.63
2018-07-03T02:33:24.197Z,1.60
2018-07-03T02:35:52.361Z,1.43
2018-07-03T02:38:20.537Z,1.67
2018-07-03T02:40:48.736Z,2.00
2018-07-03T02:43:16.899Z,1.47
2018-07-03T02:45:45.049Z,1.53
2018-07-03T02:48:13.246Z,1.50
2018-07-03T02:50:41.410Z,1.50
2018-07-03T02:53:09.587Z,1.53
2018-07-03T02:55:37.775Z,1.50
2018-07-03T02:58:06.006Z,1.60
2018-07-03T03:00:34.588Z,1.67
2018-07-03T03:03:02.749Z,1.70
2018-07-03T03:05:30.941Z,1.50
2018-07-03T03:07:59.109Z,1.63
2018-07-03T03:10:27.297Z,1.80
2018-07-03T03:12:55.477Z,1.77
2018-07-03T03:15:23.629Z,2.00
2018-07-03T03:17:51.863Z,1.60
2018-07-03T03:20:20.016Z,1.70
2018-07-03T03:22:48.171Z,1.80
2018-07-03T03:25:16.371Z,1.60
2018-07-03T03:27:44.523Z,1.87
2018-07-03T03:30:12.693Z,1.60
2018-07-03T03:32:40.865Z,1.70
2018-07-03T03:35:09.099Z,2.00
2018-07-03T03:37:37.229Z,1.90
2018-07-03T03:40:05.403Z,2.10
2018-07-03T03:42:33.568Z,1.80
2018-07-03T03:45:01.762Z,1.60
2018-07-03T03:47:29.937Z,2.20
2018-07-03T03:49:58.224Z,1.97
2018-07-03T03:52:26.727Z,2.17
2018-07-03T03:54:55.283Z,2.27
2018-07-03T03:57:23.470Z,2.20
2018-07-03T03:59:51.655Z,1.97
2018-07-03T04:02:19.928Z,1.77
2018-07-03T04:04:48.107Z,2.13
2018-07-03T04:07:16.297Z,1.90
2018-07-03T04:09:44.514Z,2.00
2018-07-03T04:12:12.727Z,1.93
2018-07-03T04:14:40.906Z,2.00
2018-07-03T04:17:09.142Z,1.60
2018-07-03T04:19:37.336Z,2.20
2018-07-03T04:22:05.551Z,2.20
2018-07-03T04:24:33.734Z,1.63
2018-07-03T04:27:01.920Z,2.30
2018-07-03T04:29:30.121Z,2.20
2018-07-03T04:31:58.356Z,1.90
2018-07-03T04:34:26.548Z,2.33
2018-07-03T04:36:54.729Z,2.10
2018-07-03T04:39:22.970Z,1.80
2018-07-03T04:41:51.574Z,1.93
2018-07-03T04:44:19.753Z,2.17
2018-07-03T04:46:48.285Z,1.90
2018-07-03T04:49:16.450Z,2.17
2018-07-03T04:51:44.646Z,2.27
2018-07-03T04:54:12.850Z,2.33
2018-07-03T04:56:41.076Z,2.00
2018-07-03T04:59:09.265Z,2.00
2018-07-03T05:01:37.458Z,2.03
2018-07-03T05:04:05.634Z,2.10
2018-07-03T05:06:34.020Z,2.10
2018-07-03T05:09:02.227Z,2.20
2018-07-03T05:11:30.458Z,1.93
2018-07-03T05:13:58.952Z,2.00
2018-07-03T05:16:27.163Z,2.40
2018-07-03T05:18:55.369Z,2.20
2018-07-03T05:21:23.567Z,2.37
2018-07-03T05:23:51.750Z,2.27
2018-07-03T05:26:19.957Z,2.20
2018-07-03T05:28:48.158Z,2.10
2018-07-03T05:31:16.404Z,2.10
2018-07-03T05:33:44.681Z,2.30
2018-07-03T05:36:12.916Z,2.43
2018-07-03T05:38:41.081Z,2.03
2018-07-03T05:41:09.306Z,2.30
2018-07-03T05:43:37.493Z,1.93
2018-07-03T05:46:05.740Z,2.27
2018-07-03T05:48:33.688Z,2.50
2018-07-03T05:51:01.879Z,2.23
2018-07-03T05:53:30.077Z,2.37
2018-07-03T05:55:58.245Z,2.13
2018-07-03T05:58:26.449Z,2.20
2018-07-03T06:00:54.625Z,2.30
2018-07-03T06:03:22.866Z,2.30
2018-07-03T06:05:51.070Z,2.40
2018-07-03T06:08:19.260Z,1.87
2018-07-03T06:10:47.220Z,2.47
2018-07-03T06:13:15.395Z,2.10
2018-07-03T06:15:43.553Z,2.30
2018-07-03T06:18:11.742Z,2.20
2018-07-03T06:20:39.935Z,2.30
2018-07-03T06:23:08.139Z,2.47
2018-07-03T06:25:36.313Z,2.20
2018-07-03T06:28:04.501Z,2.63
2018-07-03T06:30:32.644Z,2.37
2018-07-03T06:33:00.901Z,2.30
2018-07-03T06:35:29.108Z,2.50
2018-07-03T06:37:57.291Z,2.47
2018-07-03T06:40:25.509Z,2.93
2018-07-03T06:42:53.709Z,2.30
2018-07-03T06:45:21.976Z,2.40
2018-07-03T06:47:50.180Z,2.07
2018-07-03T06:50:18.373Z,2.10
2018-07-03T06:52:46.603Z,2.20
2018-07-03T06:55:14.774Z,2.13
2018-07-03T06:57:43.013Z,1.93
2018-07-03T07:00:11.225Z,1.63
2018-07-03T07:02:39.400Z,1.90
2018-07-03T07:05:07.700Z,1.80
2018-07-03T07:07:35.901Z,2.10
2018-07-03T07:10:04.429Z,2.00
2018-07-03T07:12:32.668Z,2.30
2018-07-03T07:15:00.892Z,1.63
2018-07-03T07:17:29.013Z,1.57
2018-07-03T07:19:57.215Z,1.67
2018-07-03T07:22:25.378Z,1.70
2018-07-03T07:24:53.589Z,1.87
2018-07-03T07:27:21.781Z,2.07
2018-07-03T07:29:50.009Z,2.37
2018-07-03T07:32:18.214Z,2.00
2018-07-03T07:34:46.526Z,1.70
2018-07-03T07:37:14.710Z,1.30
2018-07-03T07:39:42.883Z,1.70
2018-07-03T07:42:11.167Z,1.43
2018-07-03T07:44:39.331Z,1.40
2018-07-03T07:47:07.517Z,1.60
2018-07-03T07:49:35.701Z,1.50
2018-07-03T07:52:03.872Z,1.50
2018-07-03T07:54:32.052Z,1.40
2018-07-03T07:57:00.260Z,1.30
2018-07-03T07:59:28.462Z,1.30
2018-07-03T08:01:56.640Z,1.30
2018-07-03T08:04:24.833Z,1.40
2018-07-03T08:06:52.777Z,1.27
2018-07-03T08:09:20.773Z,1.20
2018-07-03T08:11:48.705Z,1.73
2018-07-03T08:14:16.623Z,1.10
2018-07-03T08:16:44.920Z,1.30
2018-07-03T08:19:12.927Z,1.20
2018-07-03T08:21:40.815Z,1.30
2018-07-03T08:24:09.010Z,1.03
2018-07-03T08:26:37.216Z,1.20
2018-07-03T08:29:05.408Z,1.27
2018-07-03T08:31:33.656Z,1.40
2018-07-03T08:34:01.867Z,1.25
2018-07-03T08:36:30.080Z,1.07
2018-07-03T08:38:58.280Z,1.10
2018-07-03T08:41:26.696Z,1.20
2018-07-03T08:43:54.881Z,1.12
2018-07-03T08:46:23.093Z,1.32
2018-07-03T08:48:51.254Z,1.50
2018-07-03T08:51:19.458Z,1.55
2018-07-03T08:53:47.656Z,1.27
2018-07-03T08:56:16.696Z,1.40
2018-07-03T08:58:44.882Z,1.25
2018-07-03T09:01:13.084Z,1.52
2018-07-03T09:03:41.299Z,1.07
2018-07-03T09:06:09.809Z,1.00
2018-07-03T09:08:38.013Z,1.12
2018-07-03T09:11:06.914Z,0.88
2018-07-03T09:13:35.064Z,1.20
2018-07-03T09:16:03.288Z,1.15
2018-07-03T09:18:31.452Z,1.32
2018-07-03T09:20:59.656Z,1.07
2018-07-03T09:23:27.816Z,1.15
2018-07-03T09:25:56.013Z,1.10
2018-07-03T09:28:24.256Z,1.10
2018-07-03T09:30:52.461Z,0.90
2018-07-03T09:33:20.692Z,0.80
2018-07-03T09:35:54.659Z,0.90
2018-07-03T09:38:22.854Z,1.10
2018-07-03T09:40:51.025Z,1.05
2018-07-03T09:43:19.221Z,0.93
2018-07-03T09:45:47.400Z,0.80
2018-07-03T09:48:15.770Z,0.93
2018-07-03T09:50:43.975Z,0.93
2018-07-03T09:53:12.110Z,0.70
2018-07-03T09:55:40.486Z,0.85
2018-07-03T09:58:08.689Z,0.80
2018-07-03T10:00:42.304Z,0.88
2018-07-03T10:03:10.489Z,0.98
2018-07-03T10:05:38.655Z,0.70
2018-07-03T10:08:06.855Z,0.85
2018-07-03T10:10:35.052Z,0.75
2018-07-03T10:13:03.275Z,0.75
2018-07-03T10:15:31.413Z,0.68
2018-07-03T10:17:59.579Z,1.15
2018-07-03T10:20:27.755Z,0.80
2018-07-03T10:22:55.908Z,0.98
2018-07-03T10:25:24.122Z,1.00
2018-07-03T10:27:52.312Z,0.98
2018-07-03T10:30:20.450Z,1.12
2018-07-03T10:32:48.622Z,1.10
2018-07-03T10:35:16.828Z,0.55
2018-07-03T10:37:44.994Z,1.00
2018-07-03T10:40:13.173Z,1.32
2018-07-03T10:42:41.348Z,1.10
2018-07-03T10:45:09.518Z,0.98
2018-07-03T10:47:37.708Z,0.93
2018-07-03T10:50:12.363Z,1.15
2018-07-03T10:52:40.957Z,0.93
2018-07-03T10:55:09.348Z,0.80
2018-07-03T10:57:37.955Z,1.00
2018-07-03T11:00:07.505Z,0.70
2018-07-03T11:02:35.936Z,1.10
2018-07-03T11:05:04.450Z,0.90
2018-07-03T11:07:32.827Z,0.82
2018-07-03T11:10:01.212Z,0.85
2018-07-03T11:12:29.903Z,1.35
2018-07-03T11:14:58.409Z,1.80
2018-07-03T11:17:26.614Z,1.20
2018-07-03T11:19:54.945Z,1.15
2018-07-03T11:22:23.368Z,1.15
2018-07-03T11:25:09.722Z,0.95
2018-07-03T11:27:38.570Z,1.47
2018-07-03T11:30:07.514Z,1.52
2018-07-03T11:32:36.204Z,1.32
2018-07-03T11:35:05.030Z,1.10
2018-07-03T11:37:33.811Z,1.00
2018-07-03T11:40:02.308Z,1.20
2018-07-03T11:42:30.821Z,0.98
2018-07-03T11:44:59.802Z,1.35
2018-07-03T11:47:29.329Z,1.17
2018-07-03T11:53:00.862Z,1.00
2018-07-03T11:55:29.782Z,1.05
2018-07-03T11:57:58.121Z,1.07
2018-07-03T12:00:26.605Z,0.95
2018-07-03T12:02:56.513Z,1.37
2018-07-03T12:05:24.883Z,0.70
2018-07-03T12:07:53.213Z,0.93
2018-07-03T12:10:21.903Z,1.10
2018-07-03T12:12:50.286Z,1.07
2018-07-03T12:15:18.569Z,1.37
2018-07-03T12:17:47.013Z,1.27
2018-07-03T12:20:15.311Z,1.20
2018-07-03T12:22:43.694Z,1.02
2018-07-03T12:25:12.074Z,1.35
2018-07-03T12:27:47.173Z,1.22
2018-07-03T12:30:18.909Z,1.10
2018-07-03T12:32:47.819Z,0.82
2018-07-03T12:35:16.951Z,1.20
2018-07-03T12:37:46.734Z,1.07
2018-07-03T12:40:14.916Z,1.30
2018-07-03T12:42:45.646Z,0.93
2018-07-03T12:45:13.846Z,1.10
2018-07-03T12:47:42.259Z,1.00
2018-07-03T12:50:11.206Z,1.20
2018-07-03T12:52:39.400Z,1.27
2018-07-03T12:55:07.663Z,1.20
2018-07-03T12:57:35.838Z,1.50
2018-07-03T13:00:04.984Z,1.37
2018-07-03T13:02:33.481Z,1.62
2018-07-03T13:05:01.855Z,1.40
2018-07-03T13:07:30.023Z,1.20
2018-07-03T13:09:58.199Z,1.37
2018-07-03T13:12:26.433Z,1.35
2018-07-03T13:14:54.606Z,1.20
2018-07-03T13:17:23.752Z,1.35
2018-07-03T13:19:52.109Z,1.30
2018-07-03T13:22:23.157Z,1.37
2018-07-03T13:24:51.461Z,1.20
2018-07-03T13:27:19.954Z,0.93
2018-07-03T13:29:49.076Z,1.62
2018-07-03T13:32:17.257Z,1.27
2018-07-03T13:34:45.982Z,1.05
2018-07-03T13:37:18.431Z,1.22
2018-07-03T13:39:46.672Z,1.32
2018-07-03T13:42:16.985Z,0.95
2018-07-03T13:44:45.206Z,1.30
2018-07-03T13:47:13.468Z,0.90
2018-07-03T13:49:41.704Z,1.20
2018-07-03T13:52:09.904Z,0.90
2018-07-03T13:54:38.498Z,1.30
2018-07-03T13:57:06.877Z,1.20
2018-07-03T13:59:35.198Z,1.22
2018-07-03T14:02:03.490Z,0.85
2018-07-03T14:04:31.746Z,1.25
2018-07-03T14:07:00.641Z,1.00
2018-07-03T14:09:30.243Z,1.27
2018-07-03T14:11:58.599Z,1.05
2018-07-03T14:14:27.209Z,1.20
2018-07-03T14:16:55.599Z,0.95
2018-07-03T14:19:23.812Z,1.10
2018-07-03T14:21:52.141Z,1.20
2018-07-03T14:24:20.271Z,1.00
2018-07-03T14:26:48.464Z,1.27
2018-07-03T14:29:16.660Z,1.20
2018-07-03T14:31:49.924Z,1.12
2018-07-03T14:34:18.097Z,1.02
2018-07-03T14:36:46.309Z,1.20
2018-07-03T14:39:14.715Z,1.00
2018-07-03T14:41:43.449Z,1.00
2018-07-03T14:44:11.792Z,0.90
2018-07-03T14:46:39.976Z,1.27
2018-07-03T14:49:08.219Z,1.17
2018-07-03T14:51:36.451Z,1.22
2018-07-03T14:54:04.649Z,1.70
2018-07-03T14:56:32.864Z,1.25
2018-07-03T14:59:01.073Z,1.10
2018-07-03T15:01:29.342Z,1.45
2018-07-03T15:03:57.555Z,1.32
2018-07-03T15:06:25.709Z,1.20
2018-07-03T15:08:55.360Z,1.30
2018-07-03T15:11:23.605Z,1.12
2018-07-03T15:13:51.760Z,1.30
2018-07-03T15:16:19.680Z,1.37
2018-07-03T15:18:53.351Z,1.47
2018-07-03T15:21:21.547Z,1.15
2018-07-03T15:23:49.729Z,1.07
2018-07-03T15:26:17.911Z,0.90
2018-07-03T15:28:46.082Z,1.17
2018-07-03T15:31:14.263Z,1.10
2018-07-03T15:33:42.497Z,1.02
2018-07-03T15:36:10.661Z,1.20
2018-07-03T15:38:38.828Z,1.20
2018-07-03T15:41:07.035Z,1.67
2018-07-03T15:43:35.204Z,1.20
2018-07-03T15:46:03.714Z,1.70
2018-07-03T15:48:31.992Z,1.70
2018-07-03T15:51:00.254Z,1.50
2018-07-03T15:53:28.412Z,1.50
2018-07-03T15:55:56.598Z,1.50
2018-07-03T15:58:24.766Z,1.40
2018-07-03T16:00:53.003Z,1.15
2018-07-03T16:05:38.697Z,1.30
2018-07-03T16:08:57.915Z,1.10
2018-07-03T16:11:26.124Z,1.37
2018-07-03T16:13:54.718Z,1.40
2018-07-03T16:16:22.981Z,1.15
2018-07-03T16:18:51.233Z,1.30
2018-07-03T16:21:20.060Z,1.15
2018-07-03T16:23:48.245Z,1.42
2018-07-03T16:26:16.467Z,1.40
2018-07-03T16:28:44.713Z,1.40
2018-07-03T16:31:12.935Z,1.17
2018-07-03T16:33:41.142Z,1.25
2018-07-03T16:36:09.359Z,1.17
2018-07-03T16:38:37.580Z,1.20
2018-07-03T16:41:05.767Z,1.50
2018-07-03T16:43:33.988Z,1.60
2018-07-03T16:46:02.177Z,1.25
2018-07-03T16:48:30.361Z,1.70
2018-07-03T16:50:58.586Z,1.30
2018-07-03T16:53:26.818Z,1.20
2018-07-03T16:55:55.015Z,1.52
2018-07-03T16:58:23.248Z,1.20
2018-07-03T17:00:51.473Z,1.27
2018-07-03T17:03:19.643Z,1.20
2018-07-03T17:05:47.887Z,1.15
2018-07-03T17:08:15.867Z,1.30
2018-07-03T17:10:44.683Z,1.15
2018-07-03T17:13:12.864Z,1.20
2018-07-03T17:15:41.079Z,1.05
2018-07-03T17:18:09.295Z,0.98
2018-07-03T17:20:37.534Z,1.07
2018-07-03T17:23:05.667Z,2.05
2018-07-03T17:25:34.348Z,1.30
2018-07-03T17:28:02.286Z,1.20
2018-07-03T17:30:30.532Z,1.42
2018-07-03T17:32:58.709Z,1.25
2018-07-03T17:35:26.911Z,1.10
2018-07-03T17:37:55.108Z,1.30
2018-07-03T17:40:36.720Z,0.90
2018-07-03T17:43:18.031Z,1.30
2018-07-03T17:46:00.757Z,1.07
2018-07-03T17:48:29.150Z,1.10
2018-07-03T17:50:57.321Z,1.17
2018-07-03T17:53:25.584Z,1.60
2018-07-03T17:55:53.972Z,1.20
2018-07-03T17:58:22.197Z,1.00
2018-07-03T18:00:50.420Z,1.20
2018-07-03T18:03:18.716Z,1.12
2018-07-03T18:05:46.884Z,1.00
2018-07-03T18:08:15.098Z,1.00
2018-07-03T18:10:43.262Z,0.90
2018-07-03T18:13:11.469Z,1.13
2018-07-03T18:15:39.761Z,1.57
2018-07-03T18:18:07.952Z,1.00
2018-07-03T18:20:36.120Z,1.47
2018-07-03T18:23:04.341Z,1.50
2018-07-03T18:25:32.559Z,1.37
2018-07-03T18:28:00.749Z,1.43
2018-07-03T18:30:28.900Z,2.47
2018-07-03T18:32:58.872Z,1.30
2018-07-03T18:35:27.036Z,0.93
2018-07-03T18:37:55.245Z,1.20
2018-07-03T18:40:23.437Z,1.40
2018-07-03T18:42:51.631Z,1.43
2018-07-03T18:45:19.833Z,1.30
2018-07-03T18:47:48.060Z,1.13
2018-07-03T18:50:16.255Z,1.00
2018-07-03T18:52:44.690Z,1.13
2018-07-03T18:55:12.889Z,1.20
2018-07-03T18:57:41.078Z,1.20
2018-07-03T19:00:09.335Z,1.50
2018-07-03T19:02:37.333Z,1.40
2018-07-03T19:05:05.570Z,1.17
2018-07-03T19:07:33.842Z,1.23
2018-07-03T19:10:02.031Z,1.30
2018-07-03T19:12:30.388Z,1.20
2018-07-03T19:14:58.679Z,1.13
2018-07-03T19:17:26.853Z,1.40
2018-07-03T19:19:55.111Z,1.03
2018-07-03T19:22:24.319Z,1.20
2018-07-03T19:24:52.581Z,2.37
2018-07-03T19:27:20.793Z,3.10
2018-07-03T19:29:49.169Z,3.40
2018-07-03T19:32:17.380Z,2.90
2018-07-03T19:34:45.593Z,2.63
2018-07-03T19:37:13.970Z,1.93
2018-07-03T19:39:41.970Z,1.80
2018-07-03T19:42:11.105Z,1.90
2018-07-03T19:44:40.248Z,1.60
2018-07-03T19:47:08.416Z,1.33
2018-07-03T19:49:36.581Z,1.60
2018-07-03T19:52:04.811Z,1.53
2018-07-03T19:54:33.009Z,1.60
2018-07-03T19:57:01.186Z,1.90
2018-07-03T19:59:29.408Z,1.43
2018-07-03T20:01:57.621Z,1.40
2018-07-03T20:04:25.808Z,1.70
2018-07-03T20:06:54.205Z,1.57
2018-07-03T20:09:22.398Z,1.47
2018-07-03T20:11:50.544Z,1.80
2018-07-03T20:14:18.740Z,1.60
2018-07-03T20:16:46.925Z,1.60
2018-07-03T20:19:16.191Z,1.80
2018-07-03T20:21:45.976Z,1.83
2018-07-03T20:24:15.081Z,2.20
2018-07-03T20:26:43.292Z,1.60
2018-07-03T20:29:12.262Z,1.70
2018-07-03T20:31:40.481Z,1.67
2018-07-03T20:34:08.689Z,1.80
2018-07-03T20:36:36.970Z,1.67
2018-07-03T20:39:07.719Z,1.67
2018-07-03T20:41:36.033Z,2.00
2018-07-03T20:44:04.283Z,1.80
2018-07-03T20:46:32.493Z,1.57
2018-07-03T20:49:00.675Z,1.47
2018-07-03T20:51:28.889Z,1.60
2018-07-03T20:53:57.092Z,1.93
2018-07-03T20:56:25.296Z,1.87
2018-07-03T20:58:53.754Z,1.87
2018-07-03T21:01:21.962Z,1.60
2018-07-03T21:03:50.236Z,1.80
2018-07-03T21:06:18.449Z,1.87
2018-07-03T21:08:46.600Z,1.73
2018-07-03T21:11:14.813Z,1.60
2018-07-03T21:13:43.012Z,2.10
2018-07-03T21:16:11.348Z,2.00
2018-07-03T21:18:39.291Z,1.77
2018-07-03T21:21:07.539Z,2.00
2018-07-03T21:23:35.721Z,2.10
2018-07-03T21:26:03.999Z,2.03
2018-07-03T21:28:32.188Z,2.30
2018-07-03T21:31:00.378Z,2.13
2018-07-03T21:33:28.545Z,1.93
2018-07-03T21:35:56.748Z,2.40
2018-07-03T21:38:24.925Z,2.40
2018-07-03T21:40:53.124Z,2.40
2018-07-03T21:43:21.311Z,2.30
2018-07-03T21:45:49.543Z,1.70
2018-07-03T21:48:17.743Z,1.90
2018-07-03T21:50:45.912Z,1.80
2018-07-03T21:53:14.216Z,1.93
2018-07-03T21:55:42.469Z,1.70
2018-07-03T21:58:10.657Z,1.83
2018-07-03T22:00:40.117Z,1.77
2018-07-03T22:03:09.420Z,1.50
2018-07-03T22:05:38.314Z,1.70
2018-07-03T22:08:06.559Z,2.07
2018-07-03T22:10:34.748Z,2.07
2018-07-03T22:13:03.340Z,1.93
2018-07-03T22:15:31.722Z,2.30
2018-07-03T22:17:59.906Z,2.00
2018-07-03T22:20:28.259Z,1.50
2018-07-03T22:22:56.433Z,1.83
2018-07-03T22:25:24.624Z,1.87
2018-07-03T22:27:52.804Z,2.07
2018-07-03T22:30:21.004Z,1.80
2018-07-03T22:32:49.401Z,1.70
2018-07-03T22:35:17.659Z,1.80
2018-07-03T22:37:45.820Z,1.80
2018-07-03T22:40:14.010Z,2.03
2018-07-03T22:42:42.213Z,1.90
2018-07-03T22:45:10.418Z,1.97
2018-07-03T22:47:38.664Z,1.93
2018-07-03T22:50:06.853Z,2.30
2018-07-03T22:52:34.789Z,1.90
2018-07-03T22:55:03.028Z,1.77
2018-07-03T22:57:31.721Z,2.30
2018-07-03T22:59:59.912Z,2.00
2018-07-03T23:02:28.132Z,2.20
2018-07-03T23:04:56.644Z,1.90
2018-07-03T23:07:24.844Z,2.10
2018-07-03T23:09:53.080Z,2.13
2018-07-03T23:12:21.283Z,1.80
2018-07-03T23:14:51.231Z,2.00
2018-07-03T23:17:19.468Z,2.10
2018-07-03T23:19:48.348Z,1.90
2018-07-03T23:22:16.568Z,2.30
2018-07-03T23:24:44.877Z,1.87
2018-07-03T23:27:14.042Z,2.17
2018-07-03T23:29:42.261Z,2.47
2018-07-03T23:32:10.913Z,1.90
2018-07-03T23:34:39.390Z,1.80
2018-07-03T23:37:07.576Z,1.70
2018-07-03T23:39:35.793Z,1.70
2018-07-03T23:42:03.984Z,1.90
2018-07-03T23:44:32.344Z,2.00
2018-07-03T23:47:11.788Z,1.87
2018-07-03T23:49:51.283Z,1.73
2018-07-03T23:52:30.849Z,1.97
2018-07-03T23:55:10.512Z,2.20
2018-07-03T23:57:50.217Z,2.10
